Meloria — IBXK — position and weather

sailwx.info

Track history (hours):
 
Tides and Currents Weather Stations Pressure Air Temp Water Temp Dewpoint Dewpoint Depression Visibility Wind Speed Wind Dir Waves Ship Positions

Meloria

Last reported at 2017-May-30 11:01 UTC. Time now 2017-May-30 12:50 UTC.
Position N 41°05' E 011°56'.

Length 176 m; draft 7.2 m.

Type: Ship (hazmat cat A). MMSI: 247171100.

Date/timePositionNaut miles runAvg speedWind from/ knotsBaromVisibWave heightAir tempDewpointWater temp
2017-May-30 11:01N 41°05' E 011°56'113.3
2017-May-30 10:56N 41°05' E 011°55'713.4
2017-May-30 10:24N 41°10' E 011°48'713.6
2017-May-30 09:55N 41°14' E 011°41'613.5
2017-May-30 09:30N 41°17' E 011°35'713.3
2017-May-30 09:01N 41°22' E 011°29'713.4
2017-May-30 08:28N 41°26' E 011°22'613.6
2017-May-30 08:00N 41°30' E 011°15'713.6
2017-May-30 07:30N 41°35' E 011°08'713.3
2017-May-30 06:57N 41°40' E 011°01'613.0
2017-May-30 06:28N 41°44' E 010°54'612.6
2017-May-30 06:00N 41°48' E 010°48'611.9
2017-May-30 05:30N 41°51' E 010°42'812.2
2017-May-30 04:48N 41°57' E 010°33'412.0
2017-May-30 04:28N 41°59' E 010°29'612.2
2017-May-30 04:00N 42°03' E 010°23'612.4
2017-May-30 03:29N 42°07' E 010°17'612.4
2017-May-30 02:59N 42°11' E 010°10'812.4
2017-May-30 02:23N 42°16' E 010°02'512.3
2017-May-30 02:00N 42°19' E 009°58'612.1
2017-May-30 01:30N 42°24' E 009°54'612.4
2017-May-30 00:59N 42°30' E 009°51'712.3
2017-May-30 00:26N 42°36' E 009°46'612.3
2017-May-29 23:57N 42°42' E 009°43'712.3
2017-May-29 23:24N 42°48' E 009°39'1212.3
2017-May-29 22:25N 42°60' E 009°36'512.2
2017-May-29 22:01N 43°05' E 009°34'612.2
2017-May-29 21:30N 43°11' E 009°32'612.4
2017-May-29 21:00N 43°17' E 009°30'612.2
2017-May-29 20:30N 43°23' E 009°29'612.1
2017-May-29 20:00N 43°28' E 009°27'612.1
2017-May-29 19:30N 43°34' E 009°25'612.0
2017-May-29 19:00N 43°40' E 009°23'612.3
2017-May-29 18:31N 43°45' E 009°18'612.3
2017-May-29 18:01N 43°50' E 009°13'612.2
2017-May-29 17:31N 43°56' E 009°09'612.2
2017-May-29 17:00N 44°01' E 009°04'612.2
2017-May-29 16:31N 44°06' E 008°60'612.2
2017-May-29 16:00N 44°11' E 008°55'612.4
2017-May-29 15:30N 44°16' E 008°50'612.0
2017-May-29 15:00N 44°21' E 008°46'4 7.4
2017-May-29 14:30N 44°25' E 008°48'1 1.4
2017-May-29 13:29N 44°25' E 008°50'0 0.0
2017-May-29 12:59N 44°25' E 008°50'0 0.0
2017-May-29 12:29N 44°25' E 008°50'0 0.0
2017-May-29 11:59N 44°25' E 008°50'0 0.0
2017-May-29 11:29N 44°25' E 008°50'0 0.0
2017-May-29 10:59N 44°25' E 008°50'0 0.0
2017-May-29 10:29N 44°25' E 008°50'0 0.0
2017-May-29 09:59N 44°25' E 008°50'0 0.0
2017-May-29 09:29N 44°25' E 008°50'0 0.0
2017-May-29 08:59N 44°25' E 008°50'0 0.0
2017-May-29 08:29N 44°25' E 008°50'0 0.0
2017-May-29 07:59N 44°25' E 008°50'0 0.0
2017-May-29 07:29N 44°25' E 008°50'0 0.0
2017-May-29 06:59N 44°25' E 008°50'0 0.0
2017-May-29 06:29N 44°25' E 008°50'0 0.0
2017-May-29 05:59N 44°25' E 008°50'0 0.0
2017-May-29 05:29N 44°25' E 008°50'0 0.0
2017-May-29 04:53N 44°25' E 008°50'0 0.0
2017-May-29 04:26N 44°25' E 008°50'0 0.0
2017-May-29 03:59N 44°25' E 008°50'0 0.0
2017-May-29 03:20N 44°25' E 008°50'0 0.0
2017-May-29 02:56N 44°25' E 008°50'0 0.0
2017-May-29 02:23N 44°25' E 008°50'0 0.0
2017-May-29 01:53N 44°25' E 008°50'0 0.0
2017-May-29 01:23N 44°25' E 008°50'0 0.0
2017-May-29 00:53N 44°25' E 008°50'0 0.0
2017-May-29 00:23N 44°25' E 008°50'0 0.0
2017-May-28 23:52N 44°25' E 008°50'0 0.0
2017-May-28 23:22N 44°25' E 008°50'0 0.0
2017-May-28 22:52N 44°25' E 008°50'0 0.0
2017-May-28 22:22N 44°25' E 008°50'0 0.0
2017-May-28 21:52N 44°25' E 008°50'0 0.0
2017-May-28 21:25N 44°25' E 008°50'0 0.0
2017-May-28 20:55N 44°25' E 008°50'0 0.0
2017-May-28 20:25N 44°25' E 008°50'0 0.0
2017-May-28 19:55N 44°25' E 008°50'0 0.0
2017-May-28 19:25N 44°25' E 008°50'0 0.0
2017-May-28 18:55N 44°25' E 008°50'0 0.0
2017-May-28 18:25N 44°25' E 008°50'0 0.0
2017-May-28 17:55N 44°25' E 008°50'0 0.0
2017-May-28 17:25N 44°25' E 008°50'0 0.0
2017-May-28 16:55N 44°25' E 008°50'0 0.0
2017-May-28 16:28N 44°25' E 008°50'0 0.0
2017-May-28 15:58N 44°25' E 008°50'0 0.0
2017-May-28 15:28N 44°25' E 008°50'0 0.0
2017-May-28 14:58N 44°25' E 008°50'0 0.0
2017-May-28 13:58N 44°25' E 008°50'0 0.0
2017-May-28 13:28N 44°25' E 008°50'0 0.0
2017-May-28 12:58N 44°25' E 008°50'0 0.0
2017-May-28 12:28N 44°25' E 008°50'0 0.0
2017-May-28 11:58N 44°25' E 008°50'0 0.0
2017-May-28 11:28N 44°25' E 008°50'0 0.0
2017-May-28 10:58N 44°25' E 008°50'0 0.0
2017-May-28 10:28N 44°25' E 008°50'0 0.0
2017-May-28 09:58N 44°25' E 008°50'0 0.0
2017-May-28 09:28N 44°25' E 008°50'0 0.0
2017-May-28 08:58N 44°25' E 008°50'0 0.0
2017-May-28 08:28N 44°25' E 008°50'0 0.0
2017-May-28 07:58N 44°25' E 008°50'0 0.0
2017-May-28 07:28N 44°25' E 008°50'0 0.0
2017-May-28 07:00N 44°25' E 008°50'1 1.5
2017-May-28 06:30N 44°25' E 008°49'4 7.5
2017-May-28 06:00N 44°22' E 008°46'3 5.3
2017-May-28 05:31N 44°21' E 008°50'4 7.9
2017-May-28 05:01N 44°17' E 008°53'510.4
2017-May-28 04:31N 44°13' E 008°57'612.4
2017-May-28 04:00N 44°08' E 009°02'612.5
2017-May-28 03:30N 44°03' E 009°06'612.6
2017-May-28 03:01N 43°57' E 009°11'612.6
2017-May-28 02:30N 43°52' E 009°16'612.7
2017-May-28 02:01N 43°46' E 009°19'612.9
2017-May-28 01:31N 43°40' E 009°22'613.0
2017-May-28 01:01N 43°34' E 009°24'713.0
2017-May-28 00:31N 43°27' E 009°27'612.9
2017-May-28 00:01N 43°21' E 009°29'612.8
2017-May-27 23:31N 43°15' E 009°33'712.8
2017-May-27 22:57N 43°08' E 009°36'612.9
2017-May-27 22:30N 43°03' E 009°38'612.9
2017-May-27 22:00N 42°57' E 009°40'612.7
2017-May-27 21:31N 42°51' E 009°43'612.5
2017-May-27 21:01N 42°45' E 009°46'612.2
2017-May-27 20:29N 42°39' E 009°48'612.3
2017-May-27 20:00N 42°33' E 009°50'612.1
2017-May-27 19:31N 42°27' E 009°53'612.1
2017-May-27 19:01N 42°22' E 009°56'611.8
2017-May-27 18:31N 42°17' E 010°01'912.2
2017-May-27 17:48N 42°12' E 010°10'412.6
2017-May-27 17:30N 42°09' E 010°14'66 8.8
2017-May-27 09:59N 41°32' E 011°28'812.4
2017-May-27 09:20N 41°27' E 011°36'612.4
2017-May-27 08:51N 41°24' E 011°43'412.3
2017-May-27 08:29N 41°21' E 011°48'612.3
2017-May-27 07:59N 41°18' E 011°55'712.3
2017-May-27 07:27N 41°14' E 012°02'9213.0
2017-May-27 00:22N 40°36' E 013°53'23 0.4
2017-May-24 21:27N 40°49' E 014°18'0 0.8
2017-May-24 20:58N 40°48' E 014°18'12712.1
2017-May-24 10:31N 38°47' E 015°07'113.3
2017-May-24 10:25N 38°46' E 015°08'712.8
2017-May-24 09:54N 38°40' E 015°11'712.8
2017-May-24 09:23N 38°34' E 015°13'513.3
2017-May-24 09:00N 38°29' E 015°14'713.3
2017-May-24 08:30N 38°22' E 015°16'713.2
2017-May-24 08:00N 38°15' E 015°16'3 5.4
2017-May-24 07:29N 38°13' E 015°16'0 0.0
2017-May-24 06:59N 38°13' E 015°16'0 0.0
2017-May-24 06:29N 38°13' E 015°16'0 0.0
2017-May-24 05:59N 38°13' E 015°16'0 0.0
2017-May-24 05:29N 38°13' E 015°16'0 0.0
2017-May-24 04:59N 38°13' E 015°16'0 0.0
2017-May-24 04:29N 38°13' E 015°16'0 0.0
2017-May-24 03:59N 38°13' E 015°16'0 0.0
2017-May-24 03:29N 38°13' E 015°16'0 0.0
2017-May-24 02:59N 38°13' E 015°16'0 0.0
2017-May-24 02:29N 38°13' E 015°16'0 0.0
2017-May-24 01:59N 38°13' E 015°16'0 0.0
2017-May-24 01:29N 38°13' E 015°16'0 0.0
2017-May-24 00:59N 38°13' E 015°16'0 0.0
2017-May-24 00:28N 38°13' E 015°16'0 0.0
2017-May-23 23:58N 38°13' E 015°16'0 0.0
2017-May-23 23:28N 38°13' E 015°16'0 0.0
2017-May-23 22:58N 38°13' E 015°16'0 0.0
2017-May-23 22:28N 38°13' E 015°16'0 0.0
2017-May-23 21:58N 38°13' E 015°16'0 0.0
2017-May-23 21:28N 38°13' E 015°16'0 0.0
2017-May-23 20:58N 38°13' E 015°16'0 0.0
2017-May-23 20:28N 38°13' E 015°16'0 0.0
2017-May-23 19:58N 38°13' E 015°16'0 0.0
2017-May-23 19:28N 38°13' E 015°16'0 0.0
2017-May-23 18:58N 38°13' E 015°16'0 0.0
2017-May-23 18:28N 38°13' E 015°16'0 0.0
2017-May-23 17:58N 38°13' E 015°16'0 0.0
2017-May-23 17:28N 38°13' E 015°16'0 0.0
2017-May-23 16:58N 38°13' E 015°16'0 0.0
2017-May-23 16:28N 38°13' E 015°16'0 0.0
2017-May-23 15:58N 38°13' E 015°16'0 0.0
2017-May-23 15:28N 38°13' E 015°16'0 0.0
2017-May-23 14:58N 38°13' E 015°16'0 0.0
2017-May-23 14:28N 38°13' E 015°16'0 0.0
2017-May-23 13:28N 38°13' E 015°16'0 0.0
2017-May-23 12:58N 38°13' E 015°16'0 0.0
2017-May-23 12:28N 38°13' E 015°16'0 0.0
2017-May-23 11:58N 38°13' E 015°16'0 0.0
2017-May-23 11:28N 38°13' E 015°16'0 0.0
2017-May-23 10:58N 38°13' E 015°16'0 0.0
2017-May-23 10:28N 38°13' E 015°16'0 0.0
2017-May-23 09:58N 38°13' E 015°16'0 0.0
2017-May-23 09:28N 38°13' E 015°16'0 0.0
2017-May-23 08:52N 38°13' E 015°16'0 0.0
2017-May-23 08:28N 38°13' E 015°16'0 0.0
2017-May-23 07:58N 38°13' E 015°16'0 0.0
2017-May-23 07:16N 38°13' E 015°16'0 0.0
2017-May-23 06:58N 38°13' E 015°16'0 0.0
2017-May-23 06:28N 38°13' E 015°16'0 0.0
2017-May-23 05:58N 38°13' E 015°16'0 0.0
2017-May-23 05:28N 38°13' E 015°16'0 0.0
2017-May-23 04:58N 38°13' E 015°16'0 0.0
2017-May-23 04:28N 38°13' E 015°16'0 0.0
2017-May-23 03:58N 38°13' E 015°16'0 0.0
2017-May-23 03:28N 38°13' E 015°16'0 0.0
2017-May-23 02:58N 38°13' E 015°16'0 0.0
2017-May-23 02:28N 38°13' E 015°16'0 0.0
2017-May-23 01:58N 38°13' E 015°16'0 0.0
2017-May-23 01:28N 38°13' E 015°16'0 0.0
2017-May-23 00:58N 38°13' E 015°16'0 0.0
2017-May-23 00:28N 38°13' E 015°16'0 0.0
2017-May-22 23:58N 38°13' E 015°16'0 0.0
2017-May-22 23:28N 38°13' E 015°16'0 0.0
2017-May-22 22:58N 38°13' E 015°16'0 0.0
2017-May-22 22:28N 38°13' E 015°16'0 0.0
2017-May-22 21:58N 38°13' E 015°16'0 0.0
2017-May-22 21:28N 38°13' E 015°16'0 0.0
2017-May-22 20:58N 38°13' E 015°16'0 0.0
2017-May-22 20:28N 38°13' E 015°16'0 0.0
2017-May-22 19:58N 38°13' E 015°16'0 0.0
2017-May-22 19:28N 38°13' E 015°16'0 0.0
2017-May-22 18:58N 38°13' E 015°16'0 0.0
2017-May-22 18:28N 38°13' E 015°16'0 0.0
2017-May-22 17:58N 38°13' E 015°16'0 0.0
2017-May-22 17:28N 38°13' E 015°16'0 0.0
2017-May-22 16:58N 38°13' E 015°16'0 0.0
2017-May-22 16:28N 38°13' E 015°16'0 0.0
2017-May-22 15:58N 38°13' E 015°16'0 0.0
2017-May-22 15:28N 38°13' E 015°16'0 0.0
2017-May-22 14:58N 38°13' E 015°16'0 0.0
2017-May-22 13:58N 38°13' E 015°16'0 0.0
2017-May-22 13:27N 38°13' E 015°16'0 0.6
2017-May-22 13:00N 38°13' E 015°16'1 2.8
2017-May-22 12:29N 38°13' E 015°18'0 0.1
2017-May-22 11:59N 38°13' E 015°18'0 0.0
2017-May-22 11:29N 38°13' E 015°18'0 0.0
2017-May-22 10:59N 38°13' E 015°18'0 0.0
2017-May-22 10:29N 38°13' E 015°18'0 0.0
2017-May-22 09:59N 38°13' E 015°18'0 0.0
2017-May-22 09:29N 38°13' E 015°18'0 0.0
2017-May-22 08:59N 38°13' E 015°18'0 0.0
2017-May-22 08:23N 38°13' E 015°18'0 0.0
2017-May-22 07:59N 38°13' E 015°18'0 0.0
2017-May-22 07:29N 38°13' E 015°18'0 0.0
2017-May-22 06:59N 38°13' E 015°18'0 0.0
2017-May-22 06:23N 38°13' E 015°18'0 0.0
2017-May-22 05:59N 38°13' E 015°18'0 0.1
2017-May-22 05:29N 38°13' E 015°18'0 0.1
2017-May-22 04:59N 38°13' E 015°18'0 0.1
2017-May-22 04:29N 38°13' E 015°18'0 0.0
2017-May-22 03:59N 38°13' E 015°18'0 0.0
2017-May-22 03:29N 38°13' E 015°18'0 0.0
2017-May-22 02:59N 38°13' E 015°18'0 0.0
2017-May-22 02:29N 38°13' E 015°18'0 0.0
2017-May-22 01:59N 38°13' E 015°18'0 0.0
2017-May-22 01:29N 38°13' E 015°18'0 0.0
2017-May-22 00:59N 38°13' E 015°18'0 0.0
2017-May-22 00:29N 38°13' E 015°18'0 0.1
2017-May-21 23:58N 38°13' E 015°18'0 0.1
2017-May-21 23:28N 38°13' E 015°18'0 0.0
2017-May-21 22:58N 38°13' E 015°18'0 0.0
2017-May-21 22:28N 38°13' E 015°18'0 0.0
2017-May-21 21:58N 38°13' E 015°18'0 0.0
2017-May-21 21:28N 38°13' E 015°18'0 0.0
2017-May-21 20:58N 38°13' E 015°18'0 0.0
2017-May-21 20:28N 38°13' E 015°18'0 0.0
2017-May-21 19:58N 38°13' E 015°18'0 0.0
2017-May-21 19:28N 38°13' E 015°18'0 0.0
2017-May-21 18:58N 38°13' E 015°18'0 0.0
2017-May-21 18:28N 38°13' E 015°18'0 0.1
2017-May-21 17:58N 38°13' E 015°18'0 0.0
2017-May-21 17:28N 38°13' E 015°18'0 0.0
2017-May-21 16:58N 38°13' E 015°18'0 0.1
2017-May-21 16:28N 38°13' E 015°18'0 0.1
2017-May-21 15:58N 38°13' E 015°18'0 0.0
2017-May-21 15:28N 38°13' E 015°18'0 0.0
2017-May-21 14:58N 38°13' E 015°18'0 0.0
2017-May-21 13:58N 38°13' E 015°18'0 0.1
2017-May-21 13:28N 38°13' E 015°18'0 0.1
2017-May-21 12:58N 38°13' E 015°18'0 0.1
2017-May-21 12:28N 38°13' E 015°18'0 0.0
2017-May-21 11:58N 38°13' E 015°18'0 0.1
2017-May-21 11:28N 38°13' E 015°18'0 0.1
2017-May-21 10:58N 38°13' E 015°18'0 0.0
2017-May-21 10:28N 38°13' E 015°18'0 0.0
2017-May-21 09:58N 38°13' E 015°18'0 0.0
2017-May-21 09:28N 38°13' E 015°18'0 0.0
2017-May-21 08:58N 38°13' E 015°18'0 0.0
2017-May-21 08:28N 38°13' E 015°18'0 0.0
2017-May-21 07:58N 38°13' E 015°18'0 0.1
2017-May-21 07:28N 38°13' E 015°18'0 0.0
2017-May-21 06:52N 38°13' E 015°18'0 0.1
2017-May-21 06:28N 38°13' E 015°18'0 0.0
2017-May-21 05:58N 38°13' E 015°18'0 0.0
2017-May-21 05:28N 38°13' E 015°18'0 0.0
2017-May-21 04:58N 38°13' E 015°18'0 0.0
2017-May-21 04:28N 38°13' E 015°18'0 0.1
2017-May-21 03:58N 38°13' E 015°18'0 0.1
2017-May-21 03:28N 38°13' E 015°18'0 0.1
2017-May-21 02:58N 38°13' E 015°18'0 0.0
2017-May-21 02:28N 38°13' E 015°18'0 0.1
2017-May-21 01:58N 38°13' E 015°18'0 0.0
2017-May-21 01:28N 38°13' E 015°18'0 0.0
2017-May-21 00:58N 38°13' E 015°18'0 0.0
2017-May-21 00:28N 38°13' E 015°18'0 0.0
2017-May-20 23:58N 38°13' E 015°18'0 0.0
2017-May-20 23:28N 38°13' E 015°18'0 0.0
2017-May-20 22:58N 38°13' E 015°18'0 0.0
2017-May-20 22:28N 38°13' E 015°18'0 0.0
2017-May-20 21:58N 38°13' E 015°18'0 0.0
2017-May-20 21:28N 38°13' E 015°18'0 0.0
2017-May-20 20:58N 38°13' E 015°18'0 0.0
2017-May-20 20:28N 38°13' E 015°18'0 0.3
2017-May-20 19:58N 38°13' E 015°18'1 2.2
2017-May-20 19:30N 38°14' E 015°17'3 6.9
2017-May-20 19:00N 38°18' E 015°17'510.2
2017-May-20 18:30N 38°23' E 015°16'613.0
2017-May-20 18:00N 38°29' E 015°14'713.7
2017-May-20 17:30N 38°36' E 015°12'713.5
2017-May-20 17:00N 38°42' E 015°11'713.5
2017-May-20 16:30N 38°48' E 015°07'  
Track history (hours):
 
Tides and Currents Weather Stations Pressure Air Temp Water Temp Dewpoint Dewpoint Depression Visibility Wind Speed Wind Dir Waves Ship Positions

Meloria

Last reported at 2017-May-30 11:01 UTC. Time now 2017-May-30 12:50 UTC.
Position N 41°05' E 011°56'.

Length 176 m; draft 7.2 m.

Type: Ship (hazmat cat A). MMSI: 247171100.

Date/timePositionNaut miles runAvg speedWind from/ knotsBaromVisibWave heightAir tempDewpointWater temp
2017-May-30 11:01N 41°05' E 011°56'113.3
2017-May-30 10:56N 41°05' E 011°55'713.4
2017-May-30 10:24N 41°10' E 011°48'713.6
2017-May-30 09:55N 41°14' E 011°41'613.5
2017-May-30 09:30N 41°17' E 011°35'713.3
2017-May-30 09:01N 41°22' E 011°29'713.4
2017-May-30 08:28N 41°26' E 011°22'613.6
2017-May-30 08:00N 41°30' E 011°15'713.6
2017-May-30 07:30N 41°35' E 011°08'713.3
2017-May-30 06:57N 41°40' E 011°01'613.0
2017-May-30 06:28N 41°44' E 010°54'612.6
2017-May-30 06:00N 41°48' E 010°48'611.9
2017-May-30 05:30N 41°51' E 010°42'812.2
2017-May-30 04:48N 41°57' E 010°33'412.0
2017-May-30 04:28N 41°59' E 010°29'612.2
2017-May-30 04:00N 42°03' E 010°23'612.4
2017-May-30 03:29N 42°07' E 010°17'612.4
2017-May-30 02:59N 42°11' E 010°10'812.4
2017-May-30 02:23N 42°16' E 010°02'512.3
2017-May-30 02:00N 42°19' E 009°58'612.1
2017-May-30 01:30N 42°24' E 009°54'612.4
2017-May-30 00:59N 42°30' E 009°51'712.3
2017-May-30 00:26N 42°36' E 009°46'612.3
2017-May-29 23:57N 42°42' E 009°43'712.3
2017-May-29 23:24N 42°48' E 009°39'1212.3
2017-May-29 22:25N 42°60' E 009°36'512.2
2017-May-29 22:01N 43°05' E 009°34'612.2
2017-May-29 21:30N 43°11' E 009°32'612.4
2017-May-29 21:00N 43°17' E 009°30'612.2
2017-May-29 20:30N 43°23' E 009°29'612.1
2017-May-29 20:00N 43°28' E 009°27'612.1
2017-May-29 19:30N 43°34' E 009°25'612.0
2017-May-29 19:00N 43°40' E 009°23'612.3
2017-May-29 18:31N 43°45' E 009°18'612.3
2017-May-29 18:01N 43°50' E 009°13'612.2
2017-May-29 17:31N 43°56' E 009°09'612.2
2017-May-29 17:00N 44°01' E 009°04'612.2
2017-May-29 16:31N 44°06' E 008°60'612.2
2017-May-29 16:00N 44°11' E 008°55'612.4
2017-May-29 15:30N 44°16' E 008°50'612.0
2017-May-29 15:00N 44°21' E 008°46'4 7.4
2017-May-29 14:30N 44°25' E 008°48'1 1.4
2017-May-29 13:29N 44°25' E 008°50'0 0.0
2017-May-29 12:59N 44°25' E 008°50'0 0.0
2017-May-29 12:29N 44°25' E 008°50'0 0.0
2017-May-29 11:59N 44°25' E 008°50'0 0.0
2017-May-29 11:29N 44°25' E 008°50'0 0.0
2017-May-29 10:59N 44°25' E 008°50'0 0.0
2017-May-29 10:29N 44°25' E 008°50'0 0.0
2017-May-29 09:59N 44°25' E 008°50'0 0.0
2017-May-29 09:29N 44°25' E 008°50'0 0.0
2017-May-29 08:59N 44°25' E 008°50'0 0.0
2017-May-29 08:29N 44°25' E 008°50'0 0.0
2017-May-29 07:59N 44°25' E 008°50'0 0.0
2017-May-29 07:29N 44°25' E 008°50'0 0.0
2017-May-29 06:59N 44°25' E 008°50'0 0.0
2017-May-29 06:29N 44°25' E 008°50'0 0.0
2017-May-29 05:59N 44°25' E 008°50'0 0.0
2017-May-29 05:29N 44°25' E 008°50'0 0.0
2017-May-29 04:53N 44°25' E 008°50'0 0.0
2017-May-29 04:26N 44°25' E 008°50'0 0.0
2017-May-29 03:59N 44°25' E 008°50'0 0.0
2017-May-29 03:20N 44°25' E 008°50'0 0.0
2017-May-29 02:56N 44°25' E 008°50'0 0.0
2017-May-29 02:23N 44°25' E 008°50'0 0.0
2017-May-29 01:53N 44°25' E 008°50'0 0.0
2017-May-29 01:23N 44°25' E 008°50'0 0.0
2017-May-29 00:53N 44°25' E 008°50'0 0.0
2017-May-29 00:23N 44°25' E 008°50'0 0.0
2017-May-28 23:52N 44°25' E 008°50'0 0.0
2017-May-28 23:22N 44°25' E 008°50'0 0.0
2017-May-28 22:52N 44°25' E 008°50'0 0.0
2017-May-28 22:22N 44°25' E 008°50'0 0.0
2017-May-28 21:52N 44°25' E 008°50'0 0.0
2017-May-28 21:25N 44°25' E 008°50'0 0.0
2017-May-28 20:55N 44°25' E 008°50'0 0.0
2017-May-28 20:25N 44°25' E 008°50'0 0.0
2017-May-28 19:55N 44°25' E 008°50'0 0.0
2017-May-28 19:25N 44°25' E 008°50'0 0.0
2017-May-28 18:55N 44°25' E 008°50'0 0.0
2017-May-28 18:25N 44°25' E 008°50'0 0.0
2017-May-28 17:55N 44°25' E 008°50'0 0.0
2017-May-28 17:25N 44°25' E 008°50'0 0.0
2017-May-28 16:55N 44°25' E 008°50'0 0.0
2017-May-28 16:28N 44°25' E 008°50'0 0.0
2017-May-28 15:58N 44°25' E 008°50'0 0.0
2017-May-28 15:28N 44°25' E 008°50'0 0.0
2017-May-28 14:58N 44°25' E 008°50'0 0.0
2017-May-28 13:58N 44°25' E 008°50'0 0.0
2017-May-28 13:28N 44°25' E 008°50'0 0.0
2017-May-28 12:58N 44°25' E 008°50'0 0.0
2017-May-28 12:28N 44°25' E 008°50'0 0.0
2017-May-28 11:58N 44°25' E 008°50'0 0.0
2017-May-28 11:28N 44°25' E 008°50'0 0.0
2017-May-28 10:58N 44°25' E 008°50'0 0.0
2017-May-28 10:28N 44°25' E 008°50'0 0.0
2017-May-28 09:58N 44°25' E 008°50'0 0.0
2017-May-28 09:28N 44°25' E 008°50'0 0.0
2017-May-28 08:58N 44°25' E 008°50'0 0.0
2017-May-28 08:28N 44°25' E 008°50'0 0.0
2017-May-28 07:58N 44°25' E 008°50'0 0.0
2017-May-28 07:28N 44°25' E 008°50'0 0.0
2017-May-28 07:00N 44°25' E 008°50'1 1.5
2017-May-28 06:30N 44°25' E 008°49'4 7.5
2017-May-28 06:00N 44°22' E 008°46'3 5.3
2017-May-28 05:31N 44°21' E 008°50'4 7.9
2017-May-28 05:01N 44°17' E 008°53'510.4
2017-May-28 04:31N 44°13' E 008°57'612.4
2017-May-28 04:00N 44°08' E 009°02'612.5
2017-May-28 03:30N 44°03' E 009°06'612.6
2017-May-28 03:01N 43°57' E 009°11'612.6
2017-May-28 02:30N 43°52' E 009°16'612.7
2017-May-28 02:01N 43°46' E 009°19'612.9
2017-May-28 01:31N 43°40' E 009°22'613.0
2017-May-28 01:01N 43°34' E 009°24'713.0
2017-May-28 00:31N 43°27' E 009°27'612.9
2017-May-28 00:01N 43°21' E 009°29'612.8
2017-May-27 23:31N 43°15' E 009°33'712.8
2017-May-27 22:57N 43°08' E 009°36'612.9
2017-May-27 22:30N 43°03' E 009°38'612.9
2017-May-27 22:00N 42°57' E 009°40'612.7
2017-May-27 21:31N 42°51' E 009°43'612.5
2017-May-27 21:01N 42°45' E 009°46'612.2
2017-May-27 20:29N 42°39' E 009°48'612.3
2017-May-27 20:00N 42°33' E 009°50'612.1
2017-May-27 19:31N 42°27' E 009°53'612.1
2017-May-27 19:01N 42°22' E 009°56'611.8
2017-May-27 18:31N 42°17' E 010°01'912.2
2017-May-27 17:48N 42°12' E 010°10'412.6
2017-May-27 17:30N 42°09' E 010°14'66 8.8
2017-May-27 09:59N 41°32' E 011°28'812.4
2017-May-27 09:20N 41°27' E 011°36'612.4
2017-May-27 08:51N 41°24' E 011°43'412.3
2017-May-27 08:29N 41°21' E 011°48'612.3
2017-May-27 07:59N 41°18' E 011°55'712.3
2017-May-27 07:27N 41°14' E 012°02'9213.0
2017-May-27 00:22N 40°36' E 013°53'23 0.4
2017-May-24 21:27N 40°49' E 014°18'0 0.8
2017-May-24 20:58N 40°48' E 014°18'12712.1
2017-May-24 10:31N 38°47' E 015°07'113.3
2017-May-24 10:25N 38°46' E 015°08'712.8
2017-May-24 09:54N 38°40' E 015°11'712.8
2017-May-24 09:23N 38°34' E 015°13'513.3
2017-May-24 09:00N 38°29' E 015°14'713.3
2017-May-24 08:30N 38°22' E 015°16'713.2
2017-May-24 08:00N 38°15' E 015°16'3 5.4
2017-May-24 07:29N 38°13' E 015°16'0 0.0
2017-May-24 06:59N 38°13' E 015°16'0 0.0
2017-May-24 06:29N 38°13' E 015°16'0 0.0
2017-May-24 05:59N 38°13' E 015°16'0 0.0
2017-May-24 05:29N 38°13' E 015°16'0 0.0
2017-May-24 04:59N 38°13' E 015°16'0 0.0
2017-May-24 04:29N 38°13' E 015°16'0 0.0
2017-May-24 03:59N 38°13' E 015°16'0 0.0
2017-May-24 03:29N 38°13' E 015°16'0 0.0
2017-May-24 02:59N 38°13' E 015°16'0 0.0
2017-May-24 02:29N 38°13' E 015°16'0 0.0
2017-May-24 01:59N 38°13' E 015°16'0 0.0
2017-May-24 01:29N 38°13' E 015°16'0 0.0
2017-May-24 00:59N 38°13' E 015°16'0 0.0
2017-May-24 00:28N 38°13' E 015°16'0 0.0
2017-May-23 23:58N 38°13' E 015°16'0 0.0
2017-May-23 23:28N 38°13' E 015°16'0 0.0
2017-May-23 22:58N 38°13' E 015°16'0 0.0
2017-May-23 22:28N 38°13' E 015°16'0 0.0
2017-May-23 21:58N 38°13' E 015°16'0 0.0
2017-May-23 21:28N 38°13' E 015°16'0 0.0
2017-May-23 20:58N 38°13' E 015°16'0 0.0
2017-May-23 20:28N 38°13' E 015°16'0 0.0
2017-May-23 19:58N 38°13' E 015°16'0 0.0
2017-May-23 19:28N 38°13' E 015°16'0 0.0
2017-May-23 18:58N 38°13' E 015°16'0 0.0
2017-May-23 18:28N 38°13' E 015°16'0 0.0
2017-May-23 17:58N 38°13' E 015°16'0 0.0
2017-May-23 17:28N 38°13' E 015°16'0 0.0
2017-May-23 16:58N 38°13' E 015°16'0 0.0
2017-May-23 16:28N 38°13' E 015°16'0 0.0
2017-May-23 15:58N 38°13' E 015°16'0 0.0
2017-May-23 15:28N 38°13' E 015°16'0 0.0
2017-May-23 14:58N 38°13' E 015°16'0 0.0
2017-May-23 14:28N 38°13' E 015°16'0 0.0
2017-May-23 13:28N 38°13' E 015°16'0 0.0
2017-May-23 12:58N 38°13' E 015°16'0 0.0
2017-May-23 12:28N 38°13' E 015°16'0 0.0
2017-May-23 11:58N 38°13' E 015°16'0 0.0
2017-May-23 11:28N 38°13' E 015°16'0 0.0
2017-May-23 10:58N 38°13' E 015°16'0 0.0
2017-May-23 10:28N 38°13' E 015°16'0 0.0
2017-May-23 09:58N 38°13' E 015°16'0 0.0
2017-May-23 09:28N 38°13' E 015°16'0 0.0
2017-May-23 08:52N 38°13' E 015°16'0 0.0
2017-May-23 08:28N 38°13' E 015°16'0 0.0
2017-May-23 07:58N 38°13' E 015°16'0 0.0
2017-May-23 07:16N 38°13' E 015°16'0 0.0
2017-May-23 06:58N 38°13' E 015°16'0 0.0
2017-May-23 06:28N 38°13' E 015°16'0 0.0
2017-May-23 05:58N 38°13' E 015°16'0 0.0
2017-May-23 05:28N 38°13' E 015°16'0 0.0
2017-May-23 04:58N 38°13' E 015°16'0 0.0
2017-May-23 04:28N 38°13' E 015°16'0 0.0
2017-May-23 03:58N 38°13' E 015°16'0 0.0
2017-May-23 03:28N 38°13' E 015°16'0 0.0
2017-May-23 02:58N 38°13' E 015°16'0 0.0
2017-May-23 02:28N 38°13' E 015°16'0 0.0
2017-May-23 01:58N 38°13' E 015°16'0 0.0
2017-May-23 01:28N 38°13' E 015°16'0 0.0
2017-May-23 00:58N 38°13' E 015°16'0 0.0
2017-May-23 00:28N 38°13' E 015°16'0 0.0
2017-May-22 23:58N 38°13' E 015°16'0 0.0
2017-May-22 23:28N 38°13' E 015°16'0 0.0
2017-May-22 22:58N 38°13' E 015°16'0 0.0
2017-May-22 22:28N 38°13' E 015°16'0 0.0
2017-May-22 21:58N 38°13' E 015°16'0 0.0
2017-May-22 21:28N 38°13' E 015°16'0 0.0
2017-May-22 20:58N 38°13' E 015°16'0 0.0
2017-May-22 20:28N 38°13' E 015°16'0 0.0
2017-May-22 19:58N 38°13' E 015°16'0 0.0
2017-May-22 19:28N 38°13' E 015°16'0 0.0
2017-May-22 18:58N 38°13' E 015°16'0 0.0
2017-May-22 18:28N 38°13' E 015°16'0 0.0
2017-May-22 17:58N 38°13' E 015°16'0 0.0
2017-May-22 17:28N 38°13' E 015°16'0 0.0
2017-May-22 16:58N 38°13' E 015°16'0 0.0
2017-May-22 16:28N 38°13' E 015°16'0 0.0
2017-May-22 15:58N 38°13' E 015°16'0 0.0
2017-May-22 15:28N 38°13' E 015°16'0 0.0
2017-May-22 14:58N 38°13' E 015°16'0 0.0
2017-May-22 13:58N 38°13' E 015°16'0 0.0
2017-May-22 13:27N 38°13' E 015°16'0 0.6
2017-May-22 13:00N 38°13' E 015°16'1 2.8
2017-May-22 12:29N 38°13' E 015°18'0 0.1
2017-May-22 11:59N 38°13' E 015°18'0 0.0
2017-May-22 11:29N 38°13' E 015°18'0 0.0
2017-May-22 10:59N 38°13' E 015°18'0 0.0
2017-May-22 10:29N 38°13' E 015°18'0 0.0
2017-May-22 09:59N 38°13' E 015°18'0 0.0
2017-May-22 09:29N 38°13' E 015°18'0 0.0
2017-May-22 08:59N 38°13' E 015°18'0 0.0
2017-May-22 08:23N 38°13' E 015°18'0 0.0
2017-May-22 07:59N 38°13' E 015°18'0 0.0
2017-May-22 07:29N 38°13' E 015°18'0 0.0
2017-May-22 06:59N 38°13' E 015°18'0 0.0
2017-May-22 06:23N 38°13' E 015°18'0 0.0
2017-May-22 05:59N 38°13' E 015°18'0 0.1
2017-May-22 05:29N 38°13' E 015°18'0 0.1
2017-May-22 04:59N 38°13' E 015°18'0 0.1
2017-May-22 04:29N 38°13' E 015°18'0 0.0
2017-May-22 03:59N 38°13' E 015°18'0 0.0
2017-May-22 03:29N 38°13' E 015°18'0 0.0
2017-May-22 02:59N 38°13' E 015°18'0 0.0
2017-May-22 02:29N 38°13' E 015°18'0 0.0
2017-May-22 01:59N 38°13' E 015°18'0 0.0
2017-May-22 01:29N 38°13' E 015°18'0 0.0
2017-May-22 00:59N 38°13' E 015°18'0 0.0
2017-May-22 00:29N 38°13' E 015°18'0 0.1
2017-May-21 23:58N 38°13' E 015°18'0 0.1
2017-May-21 23:28N 38°13' E 015°18'0 0.0
2017-May-21 22:58N 38°13' E 015°18'0 0.0
2017-May-21 22:28N 38°13' E 015°18'0 0.0
2017-May-21 21:58N 38°13' E 015°18'0 0.0
2017-May-21 21:28N 38°13' E 015°18'0 0.0
2017-May-21 20:58N 38°13' E 015°18'0 0.0
2017-May-21 20:28N 38°13' E 015°18'0 0.0
2017-May-21 19:58N 38°13' E 015°18'0 0.0
2017-May-21 19:28N 38°13' E 015°18'0 0.0
2017-May-21 18:58N 38°13' E 015°18'0 0.0
2017-May-21 18:28N 38°13' E 015°18'0 0.1
2017-May-21 17:58N 38°13' E 015°18'0 0.0
2017-May-21 17:28N 38°13' E 015°18'0 0.0
2017-May-21 16:58N 38°13' E 015°18'0 0.1
2017-May-21 16:28N 38°13' E 015°18'0 0.1
2017-May-21 15:58N 38°13' E 015°18'0 0.0
2017-May-21 15:28N 38°13' E 015°18'0 0.0
2017-May-21 14:58N 38°13' E 015°18'0 0.0
2017-May-21 13:58N 38°13' E 015°18'0 0.1
2017-May-21 13:28N 38°13' E 015°18'0 0.1
2017-May-21 12:58N 38°13' E 015°18'0 0.1
2017-May-21 12:28N 38°13' E 015°18'0 0.0
2017-May-21 11:58N 38°13' E 015°18'0 0.1
2017-May-21 11:28N 38°13' E 015°18'0 0.1
2017-May-21 10:58N 38°13' E 015°18'0 0.0
2017-May-21 10:28N 38°13' E 015°18'0 0.0
2017-May-21 09:58N 38°13' E 015°18'0 0.0
2017-May-21 09:28N 38°13' E 015°18'0 0.0
2017-May-21 08:58N 38°13' E 015°18'0 0.0
2017-May-21 08:28N 38°13' E 015°18'0 0.0
2017-May-21 07:58N 38°13' E 015°18'0 0.1
2017-May-21 07:28N 38°13' E 015°18'0 0.0
2017-May-21 06:52N 38°13' E 015°18'0 0.1
2017-May-21 06:28N 38°13' E 015°18'0 0.0
2017-May-21 05:58N 38°13' E 015°18'0 0.0
2017-May-21 05:28N 38°13' E 015°18'0 0.0
2017-May-21 04:58N 38°13' E 015°18'0 0.0
2017-May-21 04:28N 38°13' E 015°18'0 0.1
2017-May-21 03:58N 38°13' E 015°18'0 0.1
2017-May-21 03:28N 38°13' E 015°18'0 0.1
2017-May-21 02:58N 38°13' E 015°18'0 0.0
2017-May-21 02:28N 38°13' E 015°18'0 0.1
2017-May-21 01:58N 38°13' E 015°18'0 0.0
2017-May-21 01:28N 38°13' E 015°18'0 0.0
2017-May-21 00:58N 38°13' E 015°18'0 0.0
2017-May-21 00:28N 38°13' E 015°18'0 0.0
2017-May-20 23:58N 38°13' E 015°18'0 0.0
2017-May-20 23:28N 38°13' E 015°18'0 0.0
2017-May-20 22:58N 38°13' E 015°18'0 0.0
2017-May-20 22:28N 38°13' E 015°18'0 0.0
2017-May-20 21:58N 38°13' E 015°18'0 0.0
2017-May-20 21:28N 38°13' E 015°18'0 0.0
2017-May-20 20:58N 38°13' E 015°18'0 0.0
2017-May-20 20:28N 38°13' E 015°18'0 0.3
2017-May-20 19:58N 38°13' E 015°18'1 2.2
2017-May-20 19:30N 38°14' E 015°17'3 6.9
2017-May-20 19:00N 38°18' E 015°17'510.2
2017-May-20 18:30N 38°23' E 015°16'613.0
2017-May-20 18:00N 38°29' E 015°14'713.7
2017-May-20 17:30N 38°36' E 015°12'713.5
2017-May-20 17:00N 38°42' E 015°11'713.5
2017-May-20 16:30N 38°48' E 015°07'  

Dump ship's entire track history